ANZ432 NZAA-NZWN
Flight info
| Callsign | ANZ432 |
|---|---|
| Flight time | N/A |
| Altitude | 34000 |
| Route | IGBAT Y506 TPAPA |
| Aircraft | A320/M-SDE3FGHIRWY/LB1 |
Departure
| Time | N/A |
|---|---|
| Airport | Auckland International Airport (NZAA) |
Arrival
| Time | 2026-05-06 03:40 |
|---|---|
| Airport | Wellington International Airport (NZWN) |
| Time | Latitude | Longitude | Altitude | Speed | Heading |
|---|---|---|---|---|---|
| 2026-05-06 03:28 | -40.83207 | 174.47863 | 11718 ft | 339 kts | 174° |
| 2026-05-06 03:28 | -40.85540 | 174.48296 | 11491 ft | 338 kts | 174° |
| 2026-05-06 03:28 | -40.87865 | 174.48715 | 11236 ft | 337 kts | 174° |
| 2026-05-06 03:28 | -40.90190 | 174.49127 | 11059 ft | 337 kts | 175° |
| 2026-05-06 03:29 | -40.92511 | 174.49535 | 11040 ft | 337 kts | 175° |
| 2026-05-06 03:29 | -40.94836 | 174.49941 | 11046 ft | 337 kts | 175° |
| 2026-05-06 03:29 | -40.97148 | 174.50346 | 10775 ft | 334 kts | 175° |
| 2026-05-06 03:29 | -40.99456 | 174.50754 | 10371 ft | 333 kts | 175° |
| 2026-05-06 03:30 | -41.01745 | 174.51161 | 9996 ft | 331 kts | 174° |
| 2026-05-06 03:30 | -41.03994 | 174.51566 | 9863 ft | 320 kts | 174° |
| 2026-05-06 03:30 | -41.06162 | 174.51957 | 9719 ft | 310 kts | 175° |
| 2026-05-06 03:30 | -41.08276 | 174.52339 | 9461 ft | 304 kts | 174° |
| 2026-05-06 03:31 | -41.10362 | 174.52754 | 9148 ft | 302 kts | 174° |
| 2026-05-06 03:31 | -41.12404 | 174.53190 | 9012 ft | 300 kts | 173° |
| 2026-05-06 03:31 | -41.14459 | 174.53641 | 8697 ft | 299 kts | 173° |
| 2026-05-06 03:31 | -41.16513 | 174.54096 | 8354 ft | 298 kts | 174° |
| 2026-05-06 03:32 | -41.18556 | 174.54546 | 8024 ft | 297 kts | 174° |
| 2026-05-06 03:32 | -41.20587 | 174.54987 | 7714 ft | 295 kts | 174° |
| 2026-05-06 03:32 | -41.22612 | 174.55424 | 7408 ft | 294 kts | 175° |
| 2026-05-06 03:32 | -41.24618 | 174.55856 | 7144 ft | 291 kts | 175° |
| 2026-05-06 03:33 | -41.26597 | 174.56284 | 7009 ft | 283 kts | 175° |
| 2026-05-06 03:33 | -41.28514 | 174.56704 | 7012 ft | 279 kts | 174° |
| 2026-05-06 03:33 | -41.30391 | 174.57402 | 6996 ft | 282 kts | 161° |
| 2026-05-06 03:33 | -41.32195 | 174.58425 | 6706 ft | 281 kts | 160° |
| 2026-05-06 03:34 | -41.33987 | 174.59466 | 6382 ft | 280 kts | 160° |
| 2026-05-06 03:34 | -41.35774 | 174.60511 | 6052 ft | 280 kts | 160° |
| 2026-05-06 03:34 | -41.37551 | 174.61552 | 5700 ft | 279 kts | 160° |
| 2026-05-06 03:34 | -41.39322 | 174.62589 | 5388 ft | 278 kts | 159° |
| 2026-05-06 03:35 | -41.40981 | 174.63936 | 5041 ft | 282 kts | 144° |
| 2026-05-06 03:35 | -41.42486 | 174.65614 | 4661 ft | 282 kts | 142° |
| 2026-05-06 03:35 | -41.43988 | 174.67291 | 4346 ft | 281 kts | 142° |
| 2026-05-06 03:35 | -41.45297 | 174.69137 | 4189 ft | 267 kts | 124° |
| 2026-05-06 03:36 | -41.46075 | 174.71292 | 3963 ft | 253 kts | 103° |
| 2026-05-06 03:36 | -41.46293 | 174.73552 | 3507 ft | 247 kts | 81° |
| 2026-05-06 03:36 | -41.45954 | 174.75741 | 3034 ft | 237 kts | 59° |
| 2026-05-06 03:36 | -41.45161 | 174.77574 | 2597 ft | 222 kts | 40° |
| 2026-05-06 03:37 | -41.44072 | 174.78934 | 2150 ft | 206 kts | 24° |
| 2026-05-06 03:37 | -41.42841 | 174.79767 | 1873 ft | 195 kts | 9° |
| 2026-05-06 03:37 | -41.41561 | 174.80096 | 1613 ft | 180 kts | 355° |
| 2026-05-06 03:37 | -41.40357 | 174.80171 | 1396 ft | 166 kts | 356° |
| 2026-05-06 03:38 | -41.39256 | 174.80248 | 1191 ft | 152 kts | 359° |
| 2026-05-06 03:38 | -41.38235 | 174.80319 | 985 ft | 140 kts | 360° |
| 2026-05-06 03:38 | -41.37317 | 174.80383 | 813 ft | 132 kts | 2° |
| 2026-05-06 03:38 | -41.36413 | 174.80443 | 640 ft | 127 kts | 2° |
| 2026-05-06 03:39 | -41.35539 | 174.80500 | 476 ft | 125 kts | 3° |
| 2026-05-06 03:39 | -41.34664 | 174.80554 | 283 ft | 126 kts | 2° |
| 2026-05-06 03:39 | -41.33782 | 174.80606 | 125 ft | 124 kts | 2° |
| 2026-05-06 03:39 | -41.32941 | 174.80670 | 29 ft | 108 kts | 4° |
| 2026-05-06 03:40 | -41.32542 | 174.80697 | 30 ft | 18 kts | 1° |
| 2026-05-06 03:40 | -41.32456 | 174.80700 | 33 ft | 0 kts | 1° |
| 2026-05-06 03:40 | -41.32454 | 174.80700 | 33 ft | 1 kts | 1° |
| 2026-05-06 03:40 | -41.32445 | 174.80701 | 34 ft | 1 kts | 9° |
| 2026-05-06 03:41 | -41.32438 | 174.80703 | 33 ft | 0 kts | 9° |
| 2026-05-06 03:41 | -41.32431 | 174.80704 | 34 ft | 2 kts | 9° |
| 2026-05-06 03:41 | -41.32419 | 174.80717 | 35 ft | 3 kts | 46° |
| 2026-05-06 03:42 | -41.32411 | 174.80756 | 35 ft | 6 kts | 85° |
| 2026-05-06 03:42 | -41.32434 | 174.80824 | 34 ft | 11 kts | 149° |
| 2026-05-06 03:42 | -41.32533 | 174.80830 | 31 ft | 18 kts | 181° |
| 2026-05-06 03:42 | -41.32676 | 174.80822 | 26 ft | 23 kts | 184° |
| 2026-05-06 03:43 | -41.32774 | 174.80813 | 26 ft | 5 kts | 184° |
| 2026-05-06 03:43 | -41.32825 | 174.80808 | 26 ft | 9 kts | 184° |
| 2026-05-06 03:43 | -41.32902 | 174.80802 | 26 ft | 13 kts | 183° |
| 2026-05-06 03:43 | -41.33000 | 174.80796 | 26 ft | 15 kts | 182° |
| 2026-05-06 03:44 | -41.33093 | 174.80811 | 26 ft | 13 kts | 136° |
| 2026-05-06 03:44 | -41.33105 | 174.80908 | 26 ft | 5 kts | 91° |
| 2026-05-06 03:44 | -41.33107 | 174.80968 | 26 ft | 6 kts | 78° |
| 2026-05-06 03:44 | -41.33073 | 174.80985 | 26 ft | 1 kts | 12° |
| 2026-05-06 03:45 | -41.33064 | 174.80989 | 26 ft | 1 kts | 17° |
| 2026-05-06 03:45 | -41.33062 | 174.80990 | 26 ft | 0 kts | 17° |